Time;durP1;ratioP1;P1;durP2;ratioP2;P2;SDS_P1;SDS_P2;PMS_P1;PMS_P2;Temp;Humidity;BMP_temperature;BMP_pressure;BME280_temperature;BME280_humidity;BME280_pressure;Samples;Min_cycle;Max_cycle;Signal;HPM_P1;HPM_P2
2021/05/04 00:00:32;;;;;;;9.40;3.88;;;11.90;59.30;;;;;;5093260;28;20012;-68
2021/05/04 00:02:58;;;;;;;12.98;4.07;;;11.90;59.00;;;;;;5087517;28;20772;-68
2021/05/04 00:05:24;;;;;;;11.13;4.32;;;11.90;59.10;;;;;;5090739;28;20039;-68
2021/05/04 00:07:50;;;;;;;11.32;4.60;;;11.80;59.40;;;;;;5090985;28;20023;-68
2021/05/04 00:10:15;;;;;;;5.10;3.67;;;11.80;59.60;;;;;;5091300;28;20028;-68
2021/05/04 00:12:41;;;;;;;14.05;4.10;;;11.70;60.30;;;;;;5090061;28;20021;-68
2021/05/04 00:15:07;;;;;;;12.43;3.83;;;11.60;61.00;;;;;;5091214;28;20750;-68
2021/05/04 00:17:33;;;;;;;11.32;4.00;;;11.60;60.80;;;;;;5072883;28;20066;-69
2021/05/04 00:19:58;;;;;;;9.07;4.18;;;11.50;61.60;;;;;;5071970;28;20024;-68
2021/05/04 00:22:24;;;;;;;9.25;4.18;;;11.50;62.50;;;;;;5090832;28;20352;-69
2021/05/04 00:24:50;;;;;;;8.05;3.67;;;11.40;63.50;;;;;;5095931;28;20027;-68
2021/05/04 00:27:15;;;;;;;7.97;4.13;;;11.30;64.20;;;;;;5093235;28;20028;-68
2021/05/04 00:29:41;;;;;;;12.52;4.45;;;11.10;65.70;;;;;;5110398;28;20100;-68
2021/05/04 00:32:06;;;;;;;13.70;3.95;;;11.10;65.80;;;;;;5111651;28;20020;-68
2021/05/04 00:34:32;;;;;;;10.65;3.53;;;11.00;67.10;;;;;;5092134;28;20028;-68
2021/05/04 00:36:58;;;;;;;12.32;3.90;;;10.90;68.00;;;;;;5075893;28;20027;-68
2021/05/04 00:39:27;;;;;;;5.20;4.00;;;10.80;69.40;;;;;;5111211;28;20107;-68
2021/05/04 00:41:53;;;;;;;6.40;3.65;;;10.60;69.50;;;;;;5092470;28;20016;-68
2021/05/04 00:44:19;;;;;;;5.50;4.18;;;10.60;70.40;;;;;;5107963;28;20371;-68
2021/05/04 00:46:45;;;;;;;6.18;4.10;;;10.50;71.10;;;;;;5110415;28;20077;-69
2021/05/04 00:49:10;;;;;;;7.03;3.70;;;10.40;72.00;;;;;;5110566;28;20035;-68
2021/05/04 00:51:37;;;;;;;10.80;4.10;;;10.30;72.20;;;;;;5110060;28;20024;-68
2021/05/04 00:54:03;;;;;;;15.88;4.00;;;10.20;73.70;;;;;;5109238;28;20096;-68
2021/05/04 00:56:28;;;;;;;6.53;3.50;;;10.10;74.30;;;;;;5092235;28;20102;-68
2021/05/04 00:58:54;;;;;;;12.20;3.55;;;10.10;74.50;;;;;;5091977;28;20055;-70
2021/05/04 01:01:20;;;;;;;6.28;3.50;;;10.00;75.30;;;;;;5075715;28;20038;-70
2021/05/04 01:03:45;;;;;;;7.30;3.83;;;10.00;76.40;;;;;;5091873;28;20027;-70
2021/05/04 01:06:11;;;;;;;7.82;3.63;;;9.90;75.90;;;;;;5075566;28;20032;-70
2021/05/04 01:08:37;;;;;;;8.43;4.53;;;9.90;76.60;;;;;;5109688;28;20449;-71
2021/05/04 01:11:03;;;;;;;8.25;4.13;;;9.80;77.00;;;;;;5110813;28;20028;-70
2021/05/04 01:13:28;;;;;;;12.80;4.07;;;9.80;77.70;;;;;;5110096;28;20530;-70
2021/05/04 01:15:54;;;;;;;8.32;3.83;;;9.70;77.90;;;;;;5109660;28;20052;-70
2021/05/04 01:18:19;;;;;;;7.35;4.57;;;9.70;78.20;;;;;;5075194;28;20109;-70
2021/05/04 01:20:51;;;;;;;7.38;4.18;;;9.70;77.80;;;;;;5109506;28;20396;-70
2021/05/04 01:23:17;;;;;;;7.93;3.53;;;9.60;78.30;;;;;;5110721;28;20023;-70
2021/05/04 01:25:43;;;;;;;9.68;4.00;;;9.50;78.90;;;;;;5071871;28;20423;-70
2021/05/04 01:28:08;;;;;;;5.35;4.20;;;9.50;79.00;;;;;;5110357;28;20057;-70
2021/05/04 01:30:34;;;;;;;10.57;3.85;;;9.50;80.20;;;;;;5092079;28;20386;-71
2021/05/04 01:33:00;;;;;;;10.63;3.83;;;9.40;80.70;;;;;;5110507;28;20126;-70
2021/05/04 01:35:26;;;;;;;9.40;3.92;;;9.30;81.40;;;;;;5090901;28;20047;-70
2021/05/04 01:37:53;;;;;;;6.57;3.85;;;9.30;81.70;;;;;;5109907;28;20481;-70
2021/05/04 01:40:19;;;;;;;8.20;4.22;;;9.20;82.20;;;;;;5075421;28;20019;-71
2021/05/04 01:42:45;;;;;;;4.47;3.50;;;9.10;82.80;;;;;;5109383;28;20020;-70
2021/05/04 01:45:15;;;;;;;6.75;4.05;;;9.10;82.30;;;;;;5110536;28;20102;-70
2021/05/04 01:47:40;;;;;;;8.98;3.90;;;9.10;81.80;;;;;;5091263;28;20072;-70
2021/05/04 01:50:07;;;;;;;5.28;3.38;;;9.10;81.50;;;;;;5106476;28;20028;-70
2021/05/04 01:52:32;;;;;;;8.05;3.58;;;9.10;81.60;;;;;;5091884;28;20098;-69
2021/05/04 01:54:59;;;;;;;5.72;3.40;;;9.10;81.00;;;;;;5107393;28;20103;-69
2021/05/04 01:57:25;;;;;;;6.93;3.50;;;9.00;81.40;;;;;;5091285;28;20031;-69
2021/05/04 01:59:51;;;;;;;6.90;3.53;;;9.10;80.80;;;;;;5091141;28;20031;-69
2021/05/04 02:02:18;;;;;;;7.18;3.15;;;9.10;81.10;;;;;;5110291;28;20028;-69
2021/05/04 02:04:44;;;;;;;8.85;3.40;;;9.10;80.60;;;;;;5108614;28;20133;-69
2021/05/04 02:07:09;;;;;;;9.48;3.83;;;9.10;80.70;;;;;;5091684;28;20035;-69
2021/05/04 02:09:35;;;;;;;7.55;3.70;;;9.00;81.00;;;;;;5108909;28;20019;-69
2021/05/04 02:12:00;;;;;;;4.50;3.05;;;9.00;81.10;;;;;;5074148;28;20020;-69
2021/05/04 02:14:27;;;;;;;7.30;3.47;;;9.00;80.80;;;;;;5109380;28;20415;-69
2021/05/04 02:16:52;;;;;;;6.82;3.05;;;9.00;81.40;;;;;;5109398;28;20074;-69
2021/05/04 02:19:18;;;;;;;8.30;3.72;;;9.00;81.40;;;;;;5091714;28;20048;-69
2021/05/04 02:21:43;;;;;;;9.27;3.25;;;9.00;80.80;;;;;;5087920;28;20027;-67
2021/05/04 02:24:09;;;;;;;4.03;2.88;;;9.00;80.80;;;;;;5072925;28;20016;-69
2021/05/04 02:26:35;;;;;;;5.93;2.92;;;9.00;80.70;;;;;;5108551;28;20023;-69
2021/05/04 02:29:00;;;;;;;6.07;3.25;;;9.00;80.60;;;;;;5110003;28;20065;-69
2021/05/04 02:31:26;;;;;;;4.35;2.78;;;9.00;80.70;;;;;;5109649;28;20032;-69
2021/05/04 02:33:52;;;;;;;5.75;3.13;;;9.00;80.90;;;;;;5090519;28;20110;-70
2021/05/04 02:36:17;;;;;;;4.07;2.90;;;9.00;80.70;;;;;;5091764;28;20028;-70
2021/05/04 02:38:43;;;;;;;4.18;3.08;;;9.10;80.60;;;;;;5108409;28;20140;-70
2021/05/04 02:41:09;;;;;;;5.03;3.15;;;9.10;80.70;;;;;;5091356;28;20373;-70
2021/05/04 02:43:35;;;;;;;9.60;3.40;;;9.10;80.80;;;;;;5108969;28;20024;-70
2021/05/04 02:46:00;;;;;;;3.78;2.90;;;9.20;80.20;;;;;;5092653;28;20024;-70
2021/05/04 02:48:26;;;;;;;10.00;2.90;;;9.20;80.10;;;;;;5094604;28;20493;-70
2021/05/04 02:50:52;;;;;;;4.93;2.60;;;9.20;80.10;;;;;;5112758;28;20085;-70
2021/05/04 02:53:18;;;;;;;4.55;2.50;;;9.20;80.10;;;;;;5110425;28;20035;-70
2021/05/04 02:55:44;;;;;;;5.03;3.25;;;9.20;80.10;;;;;;5110162;28;20026;-70
2021/05/04 02:58:09;;;;;;;3.88;2.83;;;9.20;80.10;;;;;;5113511;28;20015;-70
2021/05/04 03:00:35;;;;;;;3.92;2.63;;;9.20;80.00;;;;;;5093994;28;20343;-70
2021/05/04 03:03:01;;;;;;;4.30;2.63;;;9.20;79.50;;;;;;5077845;28;20024;-70
2021/05/04 03:05:26;;;;;;;5.28;2.83;;;9.30;78.80;;;;;;5112846;28;20027;-70
2021/05/04 03:07:52;;;;;;;2.90;2.40;;;9.30;78.80;;;;;;5094337;28;20034;-71
2021/05/04 03:10:17;;;;;;;4.20;2.33;;;9.40;78.50;;;;;;5094559;28;20020;-70
2021/05/04 03:12:43;;;;;;;7.15;2.42;;;9.40;78.50;;;;;;5093759;28;20034;-70
2021/05/04 03:15:09;;;;;;;3.03;2.25;;;9.40;78.00;;;;;;5112712;28;20048;-70
2021/05/04 03:17:35;;;;;;;8.18;2.50;;;9.40;78.20;;;;;;5093316;28;20028;-68
2021/05/04 03:20:00;;;;;;;4.70;2.42;;;9.50;77.70;;;;;;5112982;28;20015;-69
2021/05/04 03:22:26;;;;;;;3.60;2.47;;;9.50;77.40;;;;;;5112723;28;20031;-69
2021/05/04 03:24:52;;;;;;;5.32;2.85;;;9.50;77.70;;;;;;5091241;28;20031;-69
2021/05/04 03:27:17;;;;;;;4.28;2.70;;;9.50;78.10;;;;;;5112895;28;20023;-68
2021/05/04 03:29:43;;;;;;;5.53;2.60;;;9.40;79.20;;;;;;5111457;28;20059;-69
2021/05/04 03:32:08;;;;;;;6.10;3.30;;;9.30;80.00;;;;;;5117534;27;20046;-68
2021/05/04 03:34:34;;;;;;;4.10;2.78;;;9.30;80.50;;;;;;5087922;27;20015;-69
2021/05/04 03:37:00;;;;;;;4.55;2.80;;;9.30;80.80;;;;;;5103701;27;20047;-70
2021/05/04 03:39:25;;;;;;;3.58;2.83;;;9.20;81.50;;;;;;5103016;27;20009;-70
2021/05/04 03:41:51;;;;;;;7.82;3.05;;;9.10;82.20;;;;;;5122556;27;20430;-70
2021/05/04 03:44:17;;;;;;;4.90;2.72;;;9.10;83.20;;;;;;5121119;27;20407;-70
2021/05/04 03:46:43;;;;;;;3.10;2.53;;;9.00;82.50;;;;;;5117952;27;20357;-70
2021/05/04 03:49:11;;;;;;;6.65;3.28;;;9.00;82.90;;;;;;5129363;27;20059;-70
2021/05/04 03:51:36;;;;;;;6.50;2.63;;;9.00;83.00;;;;;;5124065;27;20028;-71
2021/05/04 03:54:02;;;;;;;4.68;3.35;;;9.00;83.00;;;;;;5091608;28;20363;-70
2021/05/04 03:56:28;;;;;;;3.47;2.80;;;9.10;82.60;;;;;;5093558;28;20038;-71
2021/05/04 03:58:54;;;;;;;4.28;2.75;;;9.10;82.40;;;;;;5092508;28;20024;-68
2021/05/04 04:01:19;;;;;;;3.85;2.80;;;9.00;82.90;;;;;;5093279;28;20070;-68
2021/05/04 04:03:48;;;;;;;4.93;3.40;;;9.10;82.70;;;;;;5110932;28;20047;-68
2021/05/04 04:06:13;;;;;;;6.45;3.30;;;9.10;83.00;;;;;;5093665;28;20040;-67
2021/05/04 04:08:39;;;;;;;5.80;3.95;;;9.10;83.40;;;;;;5110710;28;20106;-68
2021/05/04 04:11:05;;;;;;;13.07;3.65;;;9.10;83.80;;;;;;5111526;28;20118;-67
2021/05/04 04:13:33;;;;;;;5.07;4.20;;;9.10;84.20;;;;;;5111353;28;20024;-67
2021/05/04 04:15:59;;;;;;;8.43;2.97;;;9.10;83.70;;;;;;5110636;28;20043;-67
2021/05/04 04:18:24;;;;;;;7.25;3.55;;;9.00;84.10;;;;;;5111077;28;20022;-67
2021/05/04 04:20:50;;;;;;;4.30;2.92;;;9.10;84.40;;;;;;5110780;28;20374;-67
2021/05/04 04:23:16;;;;;;;3.30;2.53;;;9.00;84.80;;;;;;5093001;28;20020;-67
2021/05/04 04:25:41;;;;;;;5.78;3.10;;;9.00;85.70;;;;;;5089341;28;20023;-67
2021/05/04 04:28:07;;;;;;;4.57;3.10;;;9.00;86.10;;;;;;5093145;28;20046;-67
2021/05/04 04:30:33;;;;;;;9.70;3.05;;;9.00;85.90;;;;;;5111061;28;20034;-67
2021/05/04 04:32:58;;;;;;;6.63;2.55;;;9.00;85.40;;;;;;5110302;28;20098;-67
2021/05/04 04:35:24;;;;;;;4.47;3.50;;;9.00;85.20;;;;;;5092767;28;20035;-67
2021/05/04 04:37:50;;;;;;;8.15;4.00;;;9.10;84.90;;;;;;5110643;28;20023;-67
2021/05/04 04:40:15;;;;;;;9.32;3.00;;;9.10;84.80;;;;;;5110812;28;20028;-67
2021/05/04 04:42:41;;;;;;;10.63;4.88;;;9.20;84.60;;;;;;5091584;28;20099;-66
2021/05/04 04:45:07;;;;;;;6.20;4.50;;;9.30;84.40;;;;;;5111075;28;20023;-67
2021/05/04 04:47:33;;;;;;;12.02;4.15;;;9.40;84.20;;;;;;5110316;28;20084;-67
2021/05/04 04:49:58;;;;;;;5.18;2.88;;;9.40;84.00;;;;;;5091980;28;20470;-67
2021/05/04 04:52:24;;;;;;;8.98;4.20;;;9.40;84.30;;;;;;5110751;28;20132;-67
2021/05/04 04:54:49;;;;;;;13.30;4.63;;;9.40;84.40;;;;;;5089741;28;20023;-67
2021/05/04 04:57:15;;;;;;;10.35;4.97;;;9.40;84.40;;;;;;5110736;28;20027;-67
2021/05/04 04:59:41;;;;;;;8.82;5.25;;;9.40;84.60;;;;;;5091633;28;20028;-67
2021/05/04 05:02:06;;;;;;;13.13;6.22;;;9.40;84.90;;;;;;5110260;28;20114;-67
2021/05/04 05:04:32;;;;;;;10.82;5.20;;;9.40;85.00;;;;;;5110564;28;20024;-67
2021/05/04 05:06:57;;;;;;;9.02;4.60;;;9.50;84.90;;;;;;5109975;28;20016;-67
2021/05/04 05:09:23;;;;;;;9.10;3.50;;;9.50;84.80;;;;;;5109211;28;20478;-67
2021/05/04 05:11:49;;;;;;;9.65;6.68;;;9.50;85.00;;;;;;5109934;28;20059;-67
2021/05/04 05:14:14;;;;;;;18.90;12.65;;;9.50;84.70;;;;;;5110227;28;20043;-67
2021/05/04 05:16:40;;;;;;;26.92;17.23;;;9.40;84.90;;;;;;5074112;28;20020;-66
2021/05/04 05:19:06;;;;;;;12.73;6.72;;;9.50;84.80;;;;;;5110473;28;20024;-66
2021/05/04 05:21:32;;;;;;;22.15;15.15;;;9.50;84.10;;;;;;5092144;28;20091;-67
2021/05/04 05:23:58;;;;;;;19.60;12.70;;;9.50;85.50;;;;;;5107110;28;20027;-67
2021/05/04 05:26:24;;;;;;;12.45;7.53;;;9.50;84.90;;;;;;5110213;28;20027;-67
2021/05/04 05:28:53;;;;;;;15.00;6.25;;;9.50;84.70;;;;;;5109682;28;20046;-67
2021/05/04 05:31:20;;;;;;;13.80;7.18;;;9.60;84.20;;;;;;5109413;28;20031;-67
2021/05/04 05:33:45;;;;;;;20.00;5.65;;;9.60;84.00;;;;;;5091108;28;20016;-67
2021/05/04 05:36:11;;;;;;;18.38;5.40;;;9.60;84.00;;;;;;5092088;28;20027;-67
2021/05/04 05:38:36;;;;;;;15.40;5.25;;;9.70;83.60;;;;;;5108754;28;20414;-67
2021/05/04 05:41:02;;;;;;;12.50;3.53;;;9.70;83.60;;;;;;5109992;28;20027;-67
2021/05/04 05:43:28;;;;;;;9.52;2.83;;;9.70;83.80;;;;;;5091555;28;20012;-67
2021/05/04 05:45:53;;;;;;;9.00;2.60;;;9.70;83.70;;;;;;5108902;28;20019;-67
2021/05/04 05:48:19;;;;;;;9.70;2.88;;;9.60;83.70;;;;;;5091593;28;20446;-66
2021/05/04 05:50:44;;;;;;;11.18;4.22;;;9.60;84.10;;;;;;5109350;28;20094;-66
2021/05/04 05:53:10;;;;;;;11.95;3.40;;;9.60;84.20;;;;;;5109868;28;20045;-67
2021/05/04 05:55:36;;;;;;;9.10;3.53;;;9.50;84.80;;;;;;5106328;28;20055;-66
2021/05/04 05:58:01;;;;;;;6.55;2.47;;;9.60;84.90;;;;;;5109582;28;20023;-66
2021/05/04 06:00:27;;;;;;;8.77;3.75;;;9.50;85.40;;;;;;5109358;28;20031;-66
2021/05/04 06:02:52;;;;;;;12.75;4.82;;;9.50;85.40;;;;;;5090966;28;20020;-66
2021/05/04 06:05:18;;;;;;;9.60;5.55;;;9.60;86.00;;;;;;5110046;28;20027;-67
2021/05/04 06:07:44;;;;;;;10.93;5.53;;;9.50;86.30;;;;;;5108888;28;20020;-67
2021/05/04 06:10:12;;;;;;;8.07;3.05;;;9.40;86.90;;;;;;5109956;28;20027;-68
2021/05/04 06:12:37;;;;;;;10.77;3.95;;;9.30;87.20;;;;;;5091019;28;20106;-67
2021/05/04 06:15:03;;;;;;;8.65;4.32;;;9.40;86.50;;;;;;5109129;28;20186;-68
2021/05/04 06:17:29;;;;;;;12.45;6.15;;;9.40;87.00;;;;;;5091374;28;20028;-67
2021/05/04 06:19:55;;;;;;;16.80;9.02;;;9.40;87.70;;;;;;5109077;28;20019;-67
2021/05/04 06:22:20;;;;;;;9.23;5.22;;;9.50;86.70;;;;;;5112678;28;20031;-67
2021/05/04 06:24:46;;;;;;;12.88;6.00;;;9.50;86.40;;;;;;5111082;28;20046;-67
2021/05/04 06:27:12;;;;;;;14.98;5.97;;;9.50;85.90;;;;;;5114003;28;20078;-67
2021/05/04 06:29:38;;;;;;;15.68;6.28;;;9.60;85.80;;;;;;5094468;28;20457;-68
2021/05/04 06:32:10;;;;;;;14.50;4.50;;;9.70;85.20;;;;;;5095630;28;20454;-67
2021/05/04 06:34:36;;;;;;;17.73;6.40;;;9.70;84.60;;;;;;5112695;28;20034;-67
2021/05/04 06:37:02;;;;;;;17.95;5.80;;;9.80;84.60;;;;;;5095098;28;20011;-67
2021/05/04 06:39:28;;;;;;;24.60;6.85;;;9.80;84.80;;;;;;5113280;28;20369;-67
2021/05/04 06:41:54;;;;;;;24.05;5.32;;;9.90;84.40;;;;;;5094605;28;20039;-67
2021/05/04 06:44:19;;;;;;;15.95;7.15;;;10.00;83.50;;;;;;5094709;28;20016;-67
2021/05/04 06:46:45;;;;;;;24.17;5.88;;;10.10;83.50;;;;;;5112542;28;20104;-68
2021/05/04 06:49:10;;;;;;;20.48;5.05;;;10.10;82.80;;;;;;5113226;28;20023;-68
2021/05/04 06:51:36;;;;;;;14.45;5.30;;;10.20;82.00;;;;;;5112099;28;20094;-68
2021/05/04 06:54:03;;;;;;;20.13;5.88;;;10.20;80.60;;;;;;5092142;28;20386;-68
2021/05/04 06:56:29;;;;;;;24.80;5.35;;;10.30;80.70;;;;;;5112659;28;20030;-67
2021/05/04 06:58:54;;;;;;;17.63;5.93;;;10.30;79.70;;;;;;5112453;28;20381;-68
2021/05/04 07:01:20;;;;;;;26.58;5.60;;;10.30;80.30;;;;;;5112543;28;20358;-68
2021/05/04 07:03:46;;;;;;;12.68;3.72;;;10.40;80.60;;;;;;5112287;28;20024;-68
2021/05/04 07:06:11;;;;;;;14.00;4.50;;;10.30;80.90;;;;;;5094787;28;20030;-67
2021/05/04 07:08:37;;;;;;;24.27;4.68;;;10.40;81.10;;;;;;5111550;28;20024;-68
2021/05/04 07:11:02;;;;;;;18.60;4.30;;;11.00;79.40;;;;;;5113479;28;20028;-68
2021/05/04 07:13:28;;;;;;;12.85;4.63;;;10.80;79.50;;;;;;5112629;28;20023;-68
2021/05/04 07:15:54;;;;;;;18.88;5.57;;;10.90;80.00;;;;;;5093080;28;21004;-68
2021/05/04 07:18:22;;;;;;;19.25;5.05;;;11.00;79.80;;;;;;5112499;28;20121;-68
2021/05/04 07:20:48;;;;;;;14.30;4.95;;;10.70;80.50;;;;;;5112036;28;20041;-68
2021/05/04 07:23:13;;;;;;;18.83;5.07;;;10.80;80.20;;;;;;5112471;28;20098;-68
2021/05/04 07:25:39;;;;;;;13.88;4.90;;;10.70;80.20;;;;;;5108973;28;20099;-68
2021/05/04 07:28:05;;;;;;;14.57;4.60;;;10.50;80.80;;;;;;5112941;28;20024;-68
2021/05/04 07:30:32;;;;;;;11.35;4.95;;;10.50;81.20;;;;;;5111765;28;20028;-68
2021/05/04 07:32:58;;;;;;;11.30;3.85;;;10.30;80.90;;;;;;5110603;28;20020;-68
2021/05/04 07:35:24;;;;;;;9.18;3.97;;;10.30;81.10;;;;;;5093645;28;20024;-68
2021/05/04 07:37:50;;;;;;;7.15;2.47;;;10.10;80.80;;;;;;5093131;28;20023;-68
2021/05/04 07:40:16;;;;;;;12.55;3.38;;;10.10;80.20;;;;;;5112354;28;20028;-68
2021/05/04 07:42:41;;;;;;;14.18;4.70;;;10.00;81.80;;;;;;5111099;28;20355;-68
2021/05/04 07:45:08;;;;;;;10.02;3.90;;;10.00;82.80;;;;;;5111779;28;20023;-68
2021/05/04 07:47:34;;;;;;;10.13;5.20;;;10.00;82.90;;;;;;5076225;28;20055;-68
2021/05/04 07:49:59;;;;;;;16.30;6.05;;;10.10;83.10;;;;;;5111910;28;20107;-68
2021/05/04 07:52:25;;;;;;;16.98;5.55;;;10.40;83.20;;;;;;5092851;28;20119;-68
2021/05/04 07:54:54;;;;;;;13.25;4.70;;;10.40;83.20;;;;;;5109058;28;20556;-68
2021/05/04 07:57:20;;;;;;;14.32;4.95;;;10.40;82.80;;;;;;5111717;28;20037;-68
2021/05/04 07:59:46;;;;;;;17.60;6.30;;;10.50;83.20;;;;;;5075994;28;20081;-68
2021/05/04 08:02:11;;;;;;;14.75;5.00;;;10.50;82.40;;;;;;5093788;28;20032;-68
2021/05/04 08:04:37;;;;;;;12.98;5.05;;;10.50;82.90;;;;;;5092425;28;20462;-68
2021/05/04 08:07:06;;;;;;;21.30;5.72;;;10.50;82.60;;;;;;5111487;28;20031;-68
2021/05/04 08:09:32;;;;;;;23.50;5.25;;;10.50;82.50;;;;;;5111479;28;20036;-68
2021/05/04 08:11:58;;;;;;;11.88;4.43;;;10.80;80.50;;;;;;5092496;28;20026;-68
2021/05/04 08:14:24;;;;;;;15.05;4.30;;;10.90;80.10;;;;;;5089288;28;20123;-68
2021/05/04 08:16:51;;;;;;;18.05;3.80;;;11.00;79.50;;;;;;5089353;28;20024;-68
2021/05/04 08:19:16;;;;;;;18.08;3.55;;;11.30;78.10;;;;;;5091187;28;20020;-68
2021/05/04 08:21:43;;;;;;;15.75;4.53;;;11.40;77.40;;;;;;5071048;28;20085;-68
2021/05/04 08:24:10;;;;;;;21.80;4.28;;;11.40;77.10;;;;;;5087589;28;20051;-69
2021/05/04 08:26:36;;;;;;;15.27;3.90;;;11.60;76.50;;;;;;5088930;28;20366;-68
2021/05/04 08:29:02;;;;;;;22.75;4.85;;;11.50;76.80;;;;;;5090839;28;20032;-68
2021/05/04 08:31:27;;;;;;;27.05;4.18;;;11.60;76.40;;;;;;5090612;28;20027;-68
2021/05/04 08:33:53;;;;;;;16.05;3.50;;;11.40;76.20;;;;;;5090108;28;20459;-68
2021/05/04 08:36:18;;;;;;;18.48;4.75;;;11.20;77.80;;;;;;5090001;28;20049;-68
2021/05/04 08:38:44;;;;;;;16.35;4.85;;;10.80;81.00;;;;;;5090392;28;20032;-68
2021/05/04 08:41:10;;;;;;;14.75;3.47;;;10.70;81.60;;;;;;5090836;28;20110;-68
2021/05/04 08:43:35;;;;;;;16.00;4.30;;;10.40;82.20;;;;;;5071139;28;20099;-68
2021/05/04 08:46:02;;;;;;;13.35;3.72;;;10.30;82.50;;;;;;5089651;28;20056;-68
2021/05/04 08:48:28;;;;;;;13.95;4.07;;;10.30;82.40;;;;;;5089284;28;20032;-68
2021/05/04 08:50:54;;;;;;;19.35;3.80;;;10.30;81.50;;;;;;5089424;28;20028;-68
2021/05/04 08:53:20;;;;;;;12.32;3.50;;;10.40;80.80;;;;;;5090468;28;20447;-68
2021/05/04 08:55:46;;;;;;;15.98;3.80;;;10.50;81.50;;;;;;5087631;28;20042;-67
2021/05/04 08:58:11;;;;;;;15.30;4.03;;;10.50;81.40;;;;;;5090334;28;20489;-67
2021/05/04 09:00:37;;;;;;;14.88;3.92;;;10.60;81.30;;;;;;5089478;28;20356;-67
2021/05/04 09:03:12;;;;;;;12.60;3.30;;;10.50;80.50;;;;;;5090556;28;20024;-67
2021/05/04 09:05:54;;;;;;;21.75;3.85;;;11.10;79.30;;;;;;5088544;28;20020;-67
2021/05/04 09:09:03;;;;;;;20.75;4.07;;;11.30;78.60;;;;;;5088908;28;20016;-67
2021/05/04 09:11:53;;;;;;;17.40;3.80;;;11.00;79.80;;;;;;5087718;28;20043;-67
2021/05/04 09:14:16;;;;;;;19.65;4.00;;;10.70;81.20;;;;;;5090905;28;20054;-67
2021/05/04 09:17:09;;;;;;;14.70;2.88;;;10.40;83.20;;;;;;5109165;28;20027;-67
2021/05/04 09:19:40;;;;;;;7.68;1.88;;;10.10;83.20;;;;;;5109514;28;20024;-67
2021/05/04 09:22:06;;;;;;;10.05;2.58;;;9.80;82.60;;;;;;5109996;28;20085;-67
2021/05/04 09:24:41;;;;;;;18.33;6.30;;;10.10;83.90;;;;;;5107139;28;20374;-67
2021/05/04 09:27:11;;;;;;;19.75;4.93;;;11.00;80.60;;;;;;5075805;28;20050;-68
2021/05/04 09:29:45;;;;;;;18.88;3.55;;;11.60;79.30;;;;;;5091264;28;20024;-68
2021/05/04 09:32:11;;;;;;;;;;;11.40;79.00;;;;;;5075938;28;20036;-67
2021/05/04 09:34:51;;;;;;;18.88;3.20;;;11.20;79.60;;;;;;5090462;28;19903;-67
2021/05/04 09:37:21;;;;;;;11.32;1.98;;;11.10;78.40;;;;;;5110184;28;20371;-67
2021/05/04 09:39:47;;;;;;;16.02;1.90;;;11.20;74.30;;;;;;5091547;28;20099;-67
2021/05/04 09:42:12;;;;;;;14.75;2.58;;;11.50;72.10;;;;;;5091796;28;20122;-67
2021/05/04 09:44:39;;;;;;;8.18;2.25;;;11.50;73.00;;;;;;5109127;28;20027;-67
2021/05/04 09:47:05;;;;;;;10.43;1.60;;;11.20;72.60;;;;;;5110317;28;20035;-67
2021/05/04 09:49:35;;;;;;;11.10;1.58;;;10.70;74.60;;;;;;5090895;28;20023;-67
2021/05/04 09:54:52;;;;;;;13.60;2.13;;;10.50;73.30;;;;;;5107108;28;20024;-68
2021/05/04 09:57:37;;;;;;;14.75;2.10;;;10.80;73.50;;;;;;5078413;28;20043;-68
2021/05/04 10:00:13;;;;;;;15.30;1.88;;;11.00;72.50;;;;;;5114458;28;20068;-67
2021/05/04 10:02:39;;;;;;;10.05;2.47;;;11.50;73.30;;;;;;5078281;28;20603;-68
2021/05/04 10:05:17;;;;;;;10.07;1.40;;;11.20;72.00;;;;;;5095441;28;20358;-68
2021/05/04 10:07:43;;;;;;;7.13;1.50;;;11.10;71.30;;;;;;5112829;28;20213;-68
2021/05/04 10:10:11;;;;;;;11.07;1.40;;;10.90;71.10;;;;;;5095932;28;20027;-68
2021/05/04 10:12:37;;;;;;;7.05;1.30;;;10.90;67.90;;;;;;5112699;28;20020;-68
2021/05/04 10:15:05;;;;;;;7.30;1.52;;;10.90;66.10;;;;;;5113738;28;20050;-68
2021/05/04 10:17:32;;;;;;;7.05;1.45;;;10.80;67.10;;;;;;5078542;28;20156;-68
2021/05/04 10:19:57;;;;;;;4.82;1.23;;;10.60;67.90;;;;;;5112772;28;20020;-68
2021/05/04 10:22:23;;;;;;;8.18;1.67;;;10.60;68.90;;;;;;5094874;28;20473;-67
2021/05/04 10:24:49;;;;;;;7.65;1.17;;;10.70;68.90;;;;;;5092322;28;20020;-68
2021/05/04 10:27:16;;;;;;;4.43;1.20;;;11.00;68.10;;;;;;5095351;28;20106;-68
2021/05/04 10:29:42;;;;;;;6.03;1.15;;;11.00;66.50;;;;;;5077636;28;20020;-68
2021/05/04 10:32:11;;;;;;;8.00;1.48;;;11.00;66.70;;;;;;5078933;28;20359;-68
2021/05/04 10:34:37;;;;;;;4.95;1.33;;;10.90;66.30;;;;;;5077150;28;20039;-68
2021/05/04 10:37:03;;;;;;;11.20;1.38;;;10.80;65.00;;;;;;5113580;28;20157;-68
2021/05/04 10:39:38;;;;;;;7.85;1.60;;;11.30;65.90;;;;;;5112887;28;20090;-68
2021/05/04 10:42:05;;;;;;;10.57;1.50;;;11.40;65.00;;;;;;5078018;28;20107;-68
2021/05/04 10:44:53;;;;;;;7.75;1.20;;;11.40;64.80;;;;;;5113018;28;20024;-68
2021/05/04 10:47:43;;;;;;;7.90;1.73;;;11.10;65.00;;;;;;5097716;28;20024;-68
2021/05/04 10:50:10;;;;;;;7.35;1.67;;;10.80;65.30;;;;;;5113061;28;20051;-68
2021/05/04 10:52:51;;;;;;;8.57;1.60;;;10.60;66.40;;;;;;5094094;28;20023;-68
2021/05/04 10:55:18;;;;;;;6.50;2.28;;;10.50;70.00;;;;;;5110508;28;20024;-68
2021/05/04 10:58:02;;;;;;;5.78;1.95;;;10.60;69.50;;;;;;5093693;28;20032;-68
2021/05/04 11:00:53;;;;;;;6.65;1.58;;;11.10;67.20;;;;;;5112633;28;20027;-68
2021/05/04 11:03:32;;;;;;;10.20;1.42;;;11.10;66.20;;;;;;5112300;28;20027;-68
2021/05/04 11:05:58;;;;;;;8.60;1.73;;;11.00;67.70;;;;;;5112005;28;20027;-68
2021/05/04 11:08:23;;;;;;;5.60;1.73;;;11.00;66.00;;;;;;5094213;28;20027;-68
2021/05/04 11:11:20;;;;;;;11.02;1.70;;;10.90;66.90;;;;;;5111708;28;20095;-68
2021/05/04 11:14:06;;;;;;;4.90;0.95;;;11.00;65.10;;;;;;5112065;28;20102;-68
2021/05/04 11:16:44;;;;;;;5.07;1.10;;;11.10;64.10;;;;;;5076852;28;20047;-68
2021/05/04 11:19:10;;;;;;;7.55;1.33;;;11.00;62.70;;;;;;5112169;28;20020;-68
2021/05/04 11:21:37;;;;;;;6.57;1.00;;;10.90;63.50;;;;;;5093417;28;20031;-68
2021/05/04 11:24:06;;;;;;;6.55;1.60;;;11.10;64.10;;;;;;5110111;28;20024;-68
2021/05/04 11:26:50;;;;;;;5.80;1.40;;;11.10;62.60;;;;;;5111782;28;20027;-68
2021/05/04 11:29:18;;;;;;;3.38;1.02;;;11.00;61.60;;;;;;5094567;28;20028;-68
2021/05/04 11:31:44;;;;;;;5.88;1.23;;;11.00;61.10;;;;;;5093481;28;20400;-68
2021/05/04 11:34:32;;;;;;;6.07;1.13;;;11.00;61.50;;;;;;5093855;28;20419;-68
2021/05/04 11:36:58;;;;;;;4.20;1.30;;;11.00;60.70;;;;;;5111670;28;20046;-68
2021/05/04 11:39:24;;;;;;;7.97;1.60;;;11.00;60.90;;;;;;5093539;28;20027;-68
2021/05/04 11:42:00;;;;;;;4.78;1.10;;;11.00;61.00;;;;;;5093132;28;20054;-68
2021/05/04 11:44:33;;;;;;;2.22;0.90;;;11.20;60.90;;;;;;5111827;28;20028;-68
2021/05/04 11:47:24;;;;;;;9.30;1.35;;;11.30;60.60;;;;;;5111704;28;20024;-68
2021/05/04 11:49:49;;;;;;;9.48;1.10;;;11.30;62.10;;;;;;5077247;28;20126;-67
2021/05/04 11:52:18;;;;;;;5.65;1.17;;;11.30;62.80;;;;;;5112030;28;20095;-68
2021/05/04 11:54:47;;;;;;;4.75;1.02;;;11.50;61.90;;;;;;5108687;28;20102;-68
2021/05/04 11:57:13;;;;;;;3.38;0.90;;;11.30;59.60;;;;;;5111362;28;20031;-67
2021/05/04 11:59:38;;;;;;;3.08;1.23;;;11.20;59.10;;;;;;5092633;28;20068;-68
2021/05/04 12:02:04;;;;;;;9.30;1.20;;;11.10;59.60;;;;;;5112119;28;20033;-67
2021/05/04 12:04:49;;;;;;;3.25;0.90;;;11.10;60.80;;;;;;5110902;28;20385;-67
2021/05/04 12:07:35;;;;;;;4.95;1.13;;;11.00;61.00;;;;;;5093343;28;20082;-67
2021/05/04 12:10:02;;;;;;;9.90;1.52;;;11.00;60.90;;;;;;5111262;28;20031;-67
2021/05/04 12:12:40;;;;;;;9.93;1.40;;;10.80;61.10;;;;;;5091939;28;20031;-67
2021/05/04 12:15:07;;;;;;;8.05;2.58;;;10.70;63.40;;;;;;5091273;28;20101;-67
2021/05/04 12:17:32;;;;;;;11.35;1.48;;;10.70;64.70;;;;;;5090151;28;20028;-67
2021/05/04 12:20:28;;;;;;;6.13;1.33;;;10.80;64.30;;;;;;5090026;28;20340;-67
2021/05/04 12:22:56;;;;;;;4.25;1.25;;;11.00;64.20;;;;;;5056041;28;20139;-67
2021/05/04 12:25:27;;;;;;;9.00;1.80;;;11.10;63.90;;;;;;5081504;28;20024;-67
2021/05/04 12:27:53;;;;;;;4.93;1.13;;;11.00;63.50;;;;;;5093275;28;20094;-68
2021/05/04 12:30:21;;;;;;;12.52;1.48;;;11.00;64.10;;;;;;5076141;28;20145;-67
2021/05/04 12:32:50;;;;;;;9.55;1.52;;;11.00;64.70;;;;;;5075513;28;20027;-67
2021/05/04 12:35:21;;;;;;;7.40;1.55;;;11.00;64.70;;;;;;5092825;28;20123;-68
2021/05/04 12:37:49;;;;;;;5.22;1.55;;;11.00;63.10;;;;;;5110468;28;20761;-67
2021/05/04 12:40:19;;;;;;;8.20;1.67;;;11.00;63.70;;;;;;5092404;28;20034;-67
2021/05/04 12:42:47;;;;;;;5.47;1.40;;;11.10;63.60;;;;;;5085040;28;20028;-67
2021/05/04 12:45:13;;;;;;;8.65;1.58;;;11.20;63.70;;;;;;5090447;28;20016;-67
2021/05/04 12:47:48;;;;;;;6.82;1.50;;;11.10;63.90;;;;;;5070335;28;20123;-67
2021/05/04 12:50:31;;;;;;;4.30;1.08;;;10.20;70.40;;;;;;5072502;28;20034;-67
2021/05/04 12:52:57;;;;;;;8.40;1.53;;;10.00;69.60;;;;;;5089846;28;20106;-67